Aeroporto :
LOGIN :

Iscrizione | Disclaimer

   EN    FR    IT 

 










Sommario :    VFR   VFR Marginale   IFR   IFR Intensivo   IFR Molto Intensivo
Visibilità : 
Base nubi : 
>= 8 km
>= 3000ft
5 / 8 km
1000 / 3000 ft
1500m / 5 km
500 / 1000 ft
800 / 1500m
200 / 500 ft
< 800m
< 200 ft
Simboli :   Temporali  Nebbia  Neve Forte  Precipitazioni Forti  Vento > 20 kt
SIGMETs :   Varie  Temporali  Ghiacco  Turbolenza  Onda orograficha  Ceneri Vulcaniche






- Altitudine del aeroporto : 41 ft


LIRE - Pratica di Mare Air Base Pomezia

ULTIMO METAR :
  • 050155Z 17017KT 9999 FEW020 SCT030 BKN070 15/10 Q1002 RMK OVC VIS MIN 9999 WIND THR13 18017KT WIND THR31 /////KT BLU

METARs OBSOLETI :
  • 050055Z 16019KT 9999 FEW020 SCT030 BKN070 15/09 Q1002 RMK OVC VIS MIN 9999 WIND THR13 18018KT WIND THR31 /////KT BLU
  • 042355Z 17019KT 9999 FEW020 SCT030 BKN070 15/09 Q1002 RMK OVC VIS MIN 9999 WIND THR13 18018KT WIND THR31 /////KT BLU

TAF TAF LIRE
Valido dal 05 a 03 ore il 05 a 12 ore UTC


050200Z 0503/0512 17017KT 9999 SCT020 SCT040
TEMPO 0503/0507 18018G33KT



MetMap, La meteo Aeronautica in un colpo d'occhio ! - Copyright ORBIFLY Dicembre 2007 - Disclaimer

ORBIFLY MET'MAP TEAM :

Programmazione e sviluppo : Alexandra Zaïnal
Concezione : Baudouin d'Aumeries
Aiuto per la programmazione : Marc-Olivier Méhu
Supporto tecnico e logistico : Manuel Goepfert
Aiuto per la traduzione : Arnaldo La Scala

Contatto : metmap@orbifly.com




FONTI E CREDITI :

   NOAA